Main page
METAR-TAF:

METAR-TAF

Airports :

Gabès – Matmata International Airport

Gabès, Tunisia

latitude: 33-53N, longitude: 010-06E, elevation: 4 m

Current weather observation

The report was made 1 hour and 0 minutes ago, at 06:00 UTC
Wind 7 kt from the East
Temperature 9°C
Humidity 93%
Pressure 1016 hPa
Visibility: 8000 m
Few clouds at a height of 3000 ft

METAR: DTTG 080600Z 09007KT 8000 FEW030 09/08 Q1016 NOSIG

Time: 08:00 (07:00 UTC)

Forecast

The report was made 1 hour and 0 minutes ago, at 06:00 UTC
Forecast valid from 08 at 07 UTC to 08 at 16 UTC
Wind 10 kt from the East
Visibility: 8000 m
Few clouds at a height of 3000 ft
Probability 40% :
Temporary
from 08 at 09 UTC to 08 at 16 UTC
Visibility: 5000 m
Scattered clouds at a height of 2600 ft
Few clouds at a height of 3000 ft
light rain showers
Becoming
from 08 at 12 UTC to 08 at 14 UTC
Wind 10 kt from the North/Northeast

TAF: DTTG 080600Z 0807/0816 08010KT 8000 FEW030 PROB40 TEMPO 0809/0816 5000 -SHRA SCT026 FEW030 BECMG 0812/0814 02010KT

Weather observations and forecasts of more than 4000 airports (METAR and TAF reports).

The available stations are represented by yellow and red dots on the map.

Hover mouse over dot to see the name of the station.

Then click to see weather observations and forecasts.

To change the map : click on the green buttons with a black cross to zoom in, on the green button with a dash to zoom out, or on the green arrows for adjacent maps.


METAR-TAF: